TimeEST,TemperatureF,Dew PointF,Humidity,Sea Level PressureIn,VisibilityMPH,Wind Direction,Wind SpeedMPH,Gust SpeedMPH,PrecipitationIn,Events,Conditions,WindDirDegrees,DateUTC
12:54 AM,33.1,18.0,54,29.66,10.0,SW,5.8,-,N/A,,Clear,220,2014-02-14 05:54:00
1:54 AM,34.0,16.0,48,29.65,10.0,SW,6.9,-,N/A,,Clear,230,2014-02-14 06:54:00
2:54 AM,35.1,18.0,50,29.64,10.0,WSW,9.2,-,N/A,,Clear,240,2014-02-14 07:54:00
3:54 AM,37.0,18.0,46,29.62,10.0,West,12.7,-,N/A,,Clear,280,2014-02-14 08:54:00
4:54 AM,39.0,19.0,45,29.63,10.0,Variable,5.8,-,N/A,,Clear,0,2014-02-14 09:54:00
5:54 AM,39.0,19.9,46,29.65,10.0,SSW,5.8,-,N/A,,Clear,200,2014-02-14 10:54:00
6:54 AM,37.9,21.0,51,29.68,10.0,SSW,6.9,-,N/A,,Clear,210,2014-02-14 11:54:00
7:54 AM,39.0,21.9,50,29.70,10.0,WSW,9.2,-,N/A,,Partly Cloudy,240,2014-02-14 12:54:00
8:54 AM,39.9,21.0,47,29.71,10.0,WSW,8.1,-,N/A,,Clear,250,2014-02-14 13:54:00
9:54 AM,41.0,23.0,49,29.72,10.0,WSW,6.9,-,N/A,,Clear,240,2014-02-14 14:54:00
10:54 AM,45.0,21.0,39,29.72,10.0,West,6.9,20.7,N/A,,Clear,270,2014-02-14 15:54:00
11:54 AM,46.9,19.9,34,29.72,10.0,SW,9.2,-,N/A,,Clear,220,2014-02-14 16:54:00
12:54 PM,48.9,17.1,28,29.70,10.0,WSW,10.4,18.4,N/A,,Clear,240,2014-02-14 17:54:00
1:54 PM,50.0,16.0,26,29.69,10.0,WSW,11.5,-,N/A,,Partly Cloudy,240,2014-02-14 18:54:00
2:54 PM,51.1,15.1,24,29.71,10.0,WSW,11.5,24.2,N/A,,Partly Cloudy,250,2014-02-14 19:54:00
3:54 PM,50.0,19.9,31,29.70,10.0,SW,8.1,-,N/A,,Partly Cloudy,220,2014-02-14 20:54:00
4:54 PM,50.0,19.0,29,29.71,10.0,SW,8.1,-,N/A,,Partly Cloudy,230,2014-02-14 21:54:00
5:54 PM,48.0,18.0,30,29.71,10.0,WSW,4.6,-,N/A,,Scattered Clouds,240,2014-02-14 22:54:00
6:54 PM,46.9,18.0,32,29.73,10.0,Calm,Calm,-,N/A,,Partly Cloudy,0,2014-02-14 23:54:00
7:54 PM,41.0,24.1,51,29.71,10.0,East,3.5,-,N/A,,Overcast,100,2014-02-15 00:54:00
8:54 PM,39.0,26.1,60,29.71,10.0,Calm,Calm,-,N/A,,Overcast,0,2014-02-15 01:54:00
9:54 PM,37.0,28.0,70,29.68,10.0,Calm,Calm,-,N/A,,Overcast,0,2014-02-15 02:54:00
10:54 PM,37.0,27.0,67,29.69,10.0,Calm,Calm,-,N/A,,Overcast,0,2014-02-15 03:54:00
11:54 PM,36.0,28.0,73,29.68,10.0,NNE,8.1,-,0.00,,Overcast,30,2014-02-15 04:54:00